createdAt,value
2023-04-22T00:01:02.357Z,80.40
2023-04-22T00:03:47.836Z,80.20
2023-04-22T00:06:33.207Z,80.90
2023-04-22T00:09:18.702Z,80.80
2023-04-22T00:12:04.388Z,80.60
2023-04-22T00:14:49.455Z,81.00
2023-04-22T00:17:35.037Z,81.10
2023-04-22T00:20:21.804Z,81.30
2023-04-22T00:23:06.991Z,81.00
2023-04-22T00:25:52.506Z,81.30
2023-04-22T00:28:37.964Z,82.30
2023-04-22T00:31:23.526Z,81.10
2023-04-22T00:34:08.874Z,81.80
2023-04-22T00:36:54.497Z,81.60
2023-04-22T00:39:40.073Z,81.70
2023-04-22T00:42:26.275Z,81.40
2023-04-22T00:45:14.879Z,81.60
2023-04-22T00:48:01.463Z,81.90
2023-04-22T00:50:46.919Z,81.60
2023-04-22T00:53:32.355Z,81.50
2023-04-22T00:56:17.888Z,81.90
2023-04-22T00:59:03.417Z,81.80
2023-04-22T01:01:48.813Z,82.00
2023-04-22T01:04:34.892Z,81.70
2023-04-22T01:07:20.509Z,82.30
2023-04-22T01:10:06.771Z,81.50
2023-04-22T01:12:51.860Z,82.40
2023-04-22T01:15:37.578Z,82.30
2023-04-22T01:18:22.782Z,83.10
2023-04-22T01:21:08.091Z,83.20
2023-04-22T01:23:53.543Z,82.60
2023-04-22T01:26:39.067Z,83.40
2023-04-22T01:29:24.718Z,83.20
2023-04-22T01:32:10.438Z,82.70
2023-04-22T01:34:55.489Z,83.10
2023-04-22T01:37:40.861Z,84.70
2023-04-22T01:40:27.099Z,83.20
2023-04-22T01:43:12.176Z,82.90
2023-04-22T01:45:58.239Z,83.10
2023-04-22T01:48:43.650Z,83.70
2023-04-22T01:51:28.856Z,84.20
2023-04-22T01:54:15.040Z,84.00
2023-04-22T01:57:00.753Z,84.30
2023-04-22T01:59:46.111Z,83.60
2023-04-22T02:02:31.748Z,83.70
2023-04-22T02:05:17.912Z,83.00
2023-04-22T02:08:03.118Z,82.40
2023-04-22T02:10:48.775Z,83.20
2023-04-22T02:13:41.029Z,84.10
2023-04-22T02:16:26.399Z,84.00
2023-04-22T02:19:12.066Z,83.50
2023-04-22T02:21:58.080Z,83.30
2023-04-22T02:24:43.414Z,83.50
2023-04-22T02:27:28.804Z,84.00
2023-04-22T02:30:14.069Z,84.00
2023-04-22T02:32:59.552Z,83.90
2023-04-22T02:35:44.905Z,83.90
2023-04-22T02:38:30.407Z,84.60
2023-04-22T02:41:16.072Z,85.60
2023-04-22T02:44:01.333Z,84.20
2023-04-22T02:46:46.712Z,84.50
2023-04-22T02:49:32.121Z,84.50
2023-04-22T02:52:17.537Z,84.30
2023-04-22T02:55:02.982Z,84.50
2023-04-22T02:57:48.284Z,84.40
2023-04-22T03:00:33.717Z,84.10
2023-04-22T03:03:19.308Z,84.00
2023-04-22T03:06:04.571Z,84.00
2023-04-22T03:08:49.872Z,85.80
2023-04-22T03:11:35.334Z,84.70
2023-04-22T03:14:21.029Z,85.90
2023-04-22T03:17:06.372Z,84.40
2023-04-22T03:19:51.842Z,84.90
2023-04-22T03:22:37.084Z,85.40
2023-04-22T03:25:22.362Z,84.00
2023-04-22T03:28:07.731Z,84.30
2023-04-22T03:30:53.157Z,85.30
2023-04-22T03:33:38.801Z,84.70
2023-04-22T03:36:24.063Z,85.70
2023-04-22T03:39:09.666Z,84.50
2023-04-22T03:41:54.640Z,85.30
2023-04-22T03:44:40.190Z,85.20
2023-04-22T03:47:25.686Z,84.70
2023-04-22T03:50:11.286Z,84.20
2023-04-22T03:52:56.347Z,84.50
2023-04-22T03:55:41.921Z,84.70
2023-04-22T03:58:27.227Z,84.90
2023-04-22T04:01:12.845Z,85.70
2023-04-22T04:03:58.237Z,84.70
2023-04-22T04:06:43.629Z,84.40
2023-04-22T04:09:29.018Z,84.60
2023-04-22T04:12:14.410Z,84.60
2023-04-22T04:14:59.807Z,84.80
2023-04-22T04:17:46.072Z,84.60
2023-04-22T04:20:31.503Z,84.90
2023-04-22T04:23:17.104Z,85.00
2023-04-22T04:26:02.769Z,84.90
2023-04-22T04:28:49.205Z,85.00
2023-04-22T04:31:35.306Z,85.80
2023-04-22T04:34:20.598Z,85.30
2023-04-22T04:37:05.891Z,85.70
2023-04-22T04:39:50.901Z,85.60
2023-04-22T04:42:37.428Z,85.80
2023-04-22T04:45:23.595Z,85.20
2023-04-22T04:48:09.239Z,85.60
2023-04-22T04:50:54.752Z,85.50
2023-04-22T04:53:40.777Z,84.80
2023-04-22T04:56:26.170Z,85.30
2023-04-22T04:59:11.357Z,85.40
2023-04-22T05:01:56.856Z,85.60
2023-04-22T05:04:42.338Z,85.90
2023-04-22T05:07:27.677Z,86.10
2023-04-22T05:10:14.410Z,86.20
2023-04-22T05:13:00.405Z,86.40
2023-04-22T05:15:47.481Z,86.70
2023-04-22T05:18:33.240Z,86.90
2023-04-22T05:21:18.647Z,87.10
2023-04-22T05:24:04.338Z,87.20
2023-04-22T05:26:50.002Z,87.40
2023-04-22T05:29:35.594Z,87.40
2023-04-22T05:32:21.300Z,87.40
2023-04-22T05:35:07.072Z,87.60
2023-04-22T05:37:52.553Z,87.70
2023-04-22T05:40:38.010Z,87.80
2023-04-22T05:43:23.401Z,87.80
2023-04-22T05:46:08.867Z,87.90
2023-04-22T05:48:55.695Z,88.30
2023-04-22T05:51:40.944Z,88.40
2023-04-22T05:54:26.525Z,88.50
2023-04-22T05:57:12.405Z,88.40
2023-04-22T05:59:58.672Z,87.90
2023-04-22T06:02:44.201Z,87.60
2023-04-22T06:05:29.594Z,87.60
2023-04-22T06:08:14.836Z,87.40
2023-04-22T06:11:00.447Z,87.40
2023-04-22T06:13:45.820Z,87.30
2023-04-22T06:16:31.324Z,89.70
2023-04-22T06:19:16.873Z,89.40
2023-04-22T06:22:02.261Z,88.70
2023-04-22T06:24:48.315Z,88.70
2023-04-22T06:27:33.711Z,88.70
2023-04-22T06:30:19.112Z,88.70
2023-04-22T06:33:04.589Z,88.80
2023-04-22T06:35:49.810Z,89.20
2023-04-22T06:38:35.294Z,89.60
2023-04-22T06:41:22.704Z,88.70
2023-04-22T06:44:07.717Z,88.10
2023-04-22T06:46:54.767Z,88.40
2023-04-22T06:49:43.114Z,88.20
2023-04-22T06:52:28.374Z,87.50
2023-04-22T06:55:13.728Z,88.00
2023-04-22T06:57:59.041Z,89.00
2023-04-22T07:00:44.520Z,91.70
2023-04-22T07:03:30.113Z,90.30
2023-04-22T07:06:15.381Z,92.20
2023-04-22T07:09:00.910Z,89.70
2023-04-22T07:11:46.397Z,92.90
2023-04-22T07:14:32.332Z,92.70
2023-04-22T07:17:21.951Z,92.30
2023-04-22T07:20:07.889Z,89.80
2023-04-22T07:22:53.124Z,90.30
2023-04-22T07:25:38.642Z,88.10
2023-04-22T07:28:24.094Z,88.50
2023-04-22T07:31:09.630Z,88.40
2023-04-22T07:33:55.064Z,88.30
2023-04-22T07:36:40.755Z,88.10
2023-04-22T07:39:26.034Z,87.80
2023-04-22T07:42:11.802Z,87.00
2023-04-22T07:44:57.168Z,86.70
2023-04-22T07:47:42.494Z,86.00
2023-04-22T07:50:28.092Z,86.40
2023-04-22T07:53:15.416Z,83.20
2023-04-22T07:56:02.247Z,82.10
2023-04-22T07:58:47.426Z,82.40
2023-04-22T08:01:32.933Z,81.30
2023-04-22T08:04:19.500Z,81.00
2023-04-22T08:07:17.031Z,81.90
2023-04-22T08:10:10.379Z,81.60
2023-04-22T08:12:55.673Z,80.90
2023-04-22T08:15:40.948Z,81.10
2023-04-22T08:18:26.308Z,81.20
2023-04-22T08:21:12.383Z,80.90
2023-04-22T08:23:57.717Z,81.10
2023-04-22T08:26:43.187Z,80.20
2023-04-22T08:29:28.234Z,78.80
2023-04-22T08:32:13.589Z,79.20
2023-04-22T08:35:04.391Z,80.20
2023-04-22T08:37:50.515Z,79.80
2023-04-22T08:40:40.347Z,78.80
2023-04-22T08:43:26.788Z,79.50
2023-04-22T08:46:12.390Z,78.20
2023-04-22T08:49:03.827Z,78.40
2023-04-22T08:51:50.060Z,78.70
2023-04-22T08:54:37.404Z,78.70
2023-04-22T08:57:23.595Z,78.70
2023-04-22T09:00:09.816Z,78.60
2023-04-22T09:02:56.248Z,79.20
2023-04-22T09:05:42.803Z,78.30
2023-04-22T09:08:27.841Z,78.00
2023-04-22T09:11:13.398Z,76.80
2023-04-22T09:13:58.881Z,76.00
2023-04-22T09:16:48.531Z,77.00
2023-04-22T09:19:33.792Z,76.70
2023-04-22T09:22:19.102Z,75.90
2023-04-22T09:25:05.251Z,75.60
2023-04-22T09:27:55.437Z,76.00
2023-04-22T09:30:40.465Z,76.40
2023-04-22T09:33:26.043Z,75.40
2023-04-22T09:36:11.682Z,75.70
2023-04-22T09:38:59.560Z,75.20
2023-04-22T09:41:44.890Z,75.50
2023-04-22T09:44:30.340Z,74.60
2023-04-22T09:47:15.636Z,74.60
2023-04-22T09:50:04.478Z,74.20
2023-04-22T09:52:58.775Z,73.70
2023-04-22T09:55:46.545Z,75.70
2023-04-22T09:58:31.961Z,73.10
2023-04-22T10:01:17.231Z,74.70
2023-04-22T10:04:03.116Z,74.70
2023-04-22T10:06:49.735Z,72.80
2023-04-22T10:09:34.991Z,74.00
2023-04-22T10:12:26.108Z,73.40
2023-04-22T10:15:18.476Z,70.10
2023-04-22T10:18:08.459Z,68.90
2023-04-22T10:20:55.951Z,68.20
2023-04-22T10:23:47.082Z,67.90
2023-04-22T10:26:42.630Z,69.00
2023-04-22T10:29:36.576Z,68.10
2023-04-22T10:32:21.987Z,68.30
2023-04-22T10:35:13.045Z,66.60
2023-04-22T10:37:58.105Z,66.30
2023-04-22T10:41:00.366Z,67.60
2023-04-22T10:43:48.437Z,67.90
2023-04-22T10:46:45.252Z,67.50
2023-04-22T10:49:31.890Z,67.50
2023-04-22T10:52:29.694Z,67.60
2023-04-22T10:55:15.497Z,65.50
2023-04-22T10:58:00.666Z,66.10
2023-04-22T11:03:37.849Z,65.60
2023-04-22T11:06:26.473Z,65.30
2023-04-22T11:09:16.853Z,64.60
2023-04-22T11:12:39.377Z,64.20
2023-04-22T11:15:25.354Z,64.70
2023-04-22T11:18:22.078Z,63.60
2023-04-22T11:21:08.834Z,62.90
2023-04-22T11:23:54.568Z,63.10
2023-04-22T11:26:41.319Z,62.90
2023-04-22T11:29:26.724Z,61.90
2023-04-22T11:32:12.131Z,62.00
2023-04-22T11:34:58.095Z,62.70
2023-04-22T11:38:08.623Z,62.30
2023-04-22T11:40:56.316Z,62.00
2023-04-22T11:43:48.104Z,61.30
2023-04-22T11:46:39.470Z,61.80
2023-04-22T11:49:26.765Z,60.20
2023-04-22T11:52:11.877Z,60.10
2023-04-22T11:55:00.168Z,60.40
2023-04-22T11:57:46.253Z,61.20
2023-04-22T12:00:34.184Z,61.50
2023-04-22T12:03:21.048Z,60.70
2023-04-22T12:06:06.806Z,62.50
2023-04-22T12:08:52.138Z,60.90
2023-04-22T12:11:39.051Z,60.30
2023-04-22T12:14:34.640Z,60.00
2023-04-22T12:17:24.719Z,60.70
2023-04-22T12:20:13.096Z,61.40
2023-04-22T12:22:58.665Z,60.20
2023-04-22T12:25:44.013Z,58.50
2023-04-22T12:28:29.324Z,58.20
2023-04-22T12:31:15.400Z,58.40
2023-04-22T12:34:02.080Z,58.10
2023-04-22T12:36:48.225Z,57.10
2023-04-22T12:39:33.315Z,59.10
2023-04-22T12:42:18.678Z,59.30
2023-04-22T12:45:04.373Z,58.80
2023-04-22T12:47:53.484Z,58.00
2023-04-22T12:50:38.923Z,57.60
2023-04-22T12:53:24.651Z,57.70
2023-04-22T12:56:10.105Z,54.70
2023-04-22T12:58:55.813Z,53.20
2023-04-22T13:01:41.051Z,55.80
2023-04-22T13:04:26.514Z,54.40
2023-04-22T13:07:11.727Z,51.60
2023-04-22T13:09:57.217Z,52.20
2023-04-22T13:12:43.423Z,54.00
2023-04-22T13:15:30.077Z,54.50
2023-04-22T13:18:16.708Z,54.60
2023-04-22T13:21:02.298Z,54.40
2023-04-22T13:23:47.484Z,54.70
2023-04-22T13:26:33.164Z,54.20
2023-04-22T13:29:18.476Z,54.20
2023-04-22T13:32:05.264Z,52.50
2023-04-22T13:34:50.485Z,52.90
2023-04-22T13:37:36.909Z,53.90
2023-04-22T13:40:22.249Z,53.10
2023-04-22T13:43:09.510Z,52.20
2023-04-22T13:45:54.723Z,52.70
2023-04-22T13:48:39.959Z,52.60
2023-04-22T13:51:25.393Z,53.20
2023-04-22T13:54:11.312Z,54.10
2023-04-22T13:56:56.674Z,52.40
2023-04-22T13:59:42.476Z,52.00
2023-04-22T14:02:28.177Z,51.90
2023-04-22T14:05:13.316Z,52.00
2023-04-22T14:07:59.447Z,53.00
2023-04-22T14:10:44.665Z,53.40
2023-04-22T14:13:30.875Z,51.90
2023-04-22T14:16:17.738Z,52.80
2023-04-22T14:19:03.096Z,51.80
2023-04-22T14:21:48.546Z,52.00
2023-04-22T14:24:34.019Z,53.10
2023-04-22T14:27:19.570Z,53.00
2023-04-22T14:30:06.561Z,52.70
2023-04-22T14:32:52.099Z,51.80
2023-04-22T14:35:38.177Z,53.20
2023-04-22T14:38:24.186Z,53.20
2023-04-22T14:41:10.254Z,52.00
2023-04-22T14:43:55.510Z,52.40
2023-04-22T14:46:41.108Z,52.10
2023-04-22T14:49:26.931Z,51.60
2023-04-22T14:52:12.538Z,51.30
2023-04-22T14:54:58.917Z,52.20
2023-04-22T14:57:48.324Z,52.50
2023-04-22T15:00:33.756Z,51.50
2023-04-22T15:03:19.283Z,50.30
2023-04-22T15:06:04.734Z,50.50
2023-04-22T15:08:51.786Z,51.30
2023-04-22T15:11:37.287Z,52.30
2023-04-22T15:14:22.551Z,49.90
2023-04-22T15:17:07.973Z,49.60
2023-04-22T15:19:57.530Z,50.30
2023-04-22T15:22:44.293Z,51.00
2023-04-22T15:25:29.576Z,51.50
2023-04-22T15:28:14.952Z,50.80
2023-04-22T15:31:01.394Z,50.70
2023-04-22T15:33:46.570Z,50.20
2023-04-22T15:36:33.218Z,50.70
2023-04-22T15:39:18.439Z,50.80
2023-04-22T15:42:03.867Z,51.40
2023-04-22T15:44:49.299Z,51.20
2023-04-22T15:47:36.071Z,51.40
2023-04-22T15:50:23.386Z,51.80
2023-04-22T15:53:08.811Z,51.10
2023-04-22T15:55:54.124Z,52.10
2023-04-22T15:58:39.803Z,51.10
2023-04-22T16:01:24.808Z,51.40
2023-04-22T16:04:10.798Z,51.80
2023-04-22T16:06:57.369Z,51.70
2023-04-22T16:09:43.321Z,52.60
2023-04-22T16:12:28.703Z,52.20
2023-04-22T16:15:14.054Z,53.00
2023-04-22T16:17:59.546Z,52.90
2023-04-22T16:20:45.147Z,53.00
2023-04-22T16:23:30.866Z,53.70
2023-04-22T16:26:16.282Z,53.30
2023-04-22T16:29:01.836Z,53.30
2023-04-22T16:31:47.287Z,53.60
2023-04-22T16:34:33.720Z,52.80
2023-04-22T16:37:19.152Z,53.50
2023-04-22T16:40:06.193Z,54.00
2023-04-22T16:42:51.657Z,54.10
2023-04-22T16:45:36.698Z,54.90
2023-04-22T16:48:22.347Z,55.50
2023-04-22T16:51:07.851Z,54.80
2023-04-22T16:53:53.390Z,54.90
2023-04-22T16:56:38.775Z,55.50
2023-04-22T16:59:24.382Z,55.20
2023-04-22T17:02:09.903Z,55.90
2023-04-22T17:04:55.297Z,57.00
2023-04-22T17:07:40.630Z,56.40
2023-04-22T17:10:26.125Z,58.10
2023-04-22T17:13:13.297Z,56.60
2023-04-22T17:15:58.514Z,56.70
2023-04-22T17:18:44.182Z,58.60
2023-04-22T17:21:29.675Z,59.00
2023-04-22T17:24:15.061Z,59.70
2023-04-22T17:27:01.598Z,59.30
2023-04-22T17:29:47.376Z,60.30
2023-04-22T17:32:32.604Z,59.60
2023-04-22T17:35:18.232Z,60.60
2023-04-22T17:38:03.585Z,58.50
2023-04-22T17:40:49.123Z,59.50
2023-04-22T17:43:34.309Z,58.50
2023-04-22T17:46:19.551Z,59.00
2023-04-22T17:49:05.007Z,58.40
2023-04-22T17:51:50.360Z,58.70
2023-04-22T17:54:35.728Z,58.20
2023-04-22T17:57:21.362Z,60.00
2023-04-22T18:00:08.344Z,59.00
2023-04-22T18:02:54.706Z,59.10
2023-04-22T18:05:43.240Z,58.90
2023-04-22T18:08:28.669Z,58.70
2023-04-22T18:11:14.395Z,59.20
2023-04-22T18:13:59.813Z,59.00
2023-04-22T18:16:45.211Z,59.30
2023-04-22T18:19:30.622Z,59.30
2023-04-22T18:22:19.339Z,59.70
2023-04-22T18:25:05.324Z,59.20
2023-04-22T18:27:54.877Z,59.60
2023-04-22T18:30:40.580Z,60.10
2023-04-22T18:33:26.190Z,60.30
2023-04-22T18:36:11.365Z,60.00
2023-04-22T18:38:56.902Z,60.40
2023-04-22T18:41:43.161Z,60.50
2023-04-22T18:44:28.482Z,60.60
2023-04-22T18:47:13.910Z,59.80
2023-04-22T18:50:00.235Z,60.10
2023-04-22T18:52:45.573Z,60.40
2023-04-22T18:55:30.937Z,60.40
2023-04-22T18:58:16.139Z,60.40
2023-04-22T19:01:01.807Z,60.90
2023-04-22T19:03:47.453Z,60.70
2023-04-22T19:06:32.940Z,61.10
2023-04-22T19:09:19.424Z,61.60
2023-04-22T19:12:12.728Z,62.20
2023-04-22T19:15:00.204Z,63.50
2023-04-22T19:17:45.369Z,63.70
2023-04-22T19:20:30.880Z,64.50
2023-04-22T19:23:16.376Z,64.80
2023-04-22T19:26:02.267Z,65.10
2023-04-22T19:28:48.736Z,65.20
2023-04-22T19:31:33.872Z,65.50
2023-04-22T19:34:19.218Z,66.00
2023-04-22T19:37:04.789Z,66.60
2023-04-22T19:39:50.240Z,67.10
2023-04-22T19:42:36.258Z,67.90
2023-04-22T19:45:21.563Z,67.80
2023-04-22T19:48:07.681Z,67.80
2023-04-22T19:50:53.808Z,67.50
2023-04-22T19:53:41.025Z,67.00
2023-04-22T19:56:26.726Z,68.10
2023-04-22T19:59:13.369Z,68.40
2023-04-22T20:01:59.056Z,68.60
2023-04-22T20:04:45.194Z,68.70
2023-04-22T20:07:32.778Z,68.20
2023-04-22T20:10:18.759Z,68.10
2023-04-22T20:13:05.548Z,68.00
2023-04-22T20:15:51.456Z,69.30
2023-04-22T20:18:37.021Z,68.90
2023-04-22T20:21:22.309Z,68.70
2023-04-22T20:24:08.855Z,68.70
2023-04-22T20:26:54.850Z,69.00
2023-04-22T20:29:41.635Z,68.80
2023-04-22T20:32:28.528Z,69.20
2023-04-22T20:35:16.497Z,69.10
2023-04-22T20:38:02.913Z,67.90
2023-04-22T20:40:48.847Z,68.40
2023-04-22T20:43:35.624Z,69.50
2023-04-22T20:46:23.074Z,70.30
2023-04-22T20:49:08.810Z,69.30
2023-04-22T20:51:55.088Z,68.90
2023-04-22T20:54:41.144Z,69.50
2023-04-22T20:57:26.515Z,69.70
2023-04-22T21:00:12.427Z,70.80
2023-04-22T21:02:58.897Z,73.60
2023-04-22T21:05:46.498Z,74.00
2023-04-22T21:08:33.774Z,76.30
2023-04-22T21:11:19.390Z,76.50
2023-04-22T21:14:04.911Z,74.40
2023-04-22T21:16:57.919Z,73.30
2023-04-22T21:19:48.041Z,73.60
2023-04-22T21:22:33.401Z,71.40
2023-04-22T21:25:21.996Z,71.70
2023-04-22T21:28:07.894Z,71.90
2023-04-22T21:30:53.431Z,73.00
2023-04-22T21:33:38.902Z,73.50
2023-04-22T21:36:25.046Z,73.40
2023-04-22T21:39:10.670Z,73.90
2023-04-22T21:41:55.893Z,72.70
2023-04-22T21:44:44.594Z,74.00
2023-04-22T21:47:29.834Z,74.80
2023-04-22T21:50:15.164Z,76.70
2023-04-22T21:53:00.615Z,77.00
2023-04-22T21:55:46.250Z,78.00
2023-04-22T21:58:31.785Z,77.90
2023-04-22T22:01:17.079Z,79.50
2023-04-22T22:04:03.177Z,80.80
2023-04-22T22:06:48.962Z,81.70
2023-04-22T22:09:34.069Z,82.70
2023-04-22T22:12:19.423Z,82.30
2023-04-22T22:15:05.967Z,82.10
2023-04-22T22:17:52.022Z,82.30
2023-04-22T22:20:37.647Z,82.70
2023-04-22T22:23:23.061Z,82.30
2023-04-22T22:26:08.402Z,82.90
2023-04-22T22:28:53.983Z,82.80
2023-04-22T22:31:38.959Z,83.20
2023-04-22T22:34:24.401Z,83.70
2023-04-22T22:37:09.640Z,84.40
2023-04-22T22:39:54.988Z,84.80
2023-04-22T22:42:40.577Z,84.50
2023-04-22T22:45:25.649Z,84.20
2023-04-22T22:48:11.186Z,84.30
2023-04-22T22:50:56.731Z,84.60
2023-04-22T22:53:41.921Z,85.30
2023-04-22T22:56:27.119Z,85.30
2023-04-22T22:59:12.675Z,85.20
2023-04-22T23:01:59.996Z,83.90
2023-04-22T23:04:45.812Z,85.70
2023-04-22T23:07:31.235Z,86.90
2023-04-22T23:10:16.524Z,87.40
2023-04-22T23:13:02.032Z,87.20
2023-04-22T23:15:47.345Z,87.00
2023-04-22T23:18:33.838Z,87.30
2023-04-22T23:21:19.449Z,87.10
2023-04-22T23:24:05.780Z,87.30
2023-04-22T23:26:51.777Z,87.50
2023-04-22T23:29:37.592Z,87.60
2023-04-22T23:32:26.459Z,88.20
2023-04-22T23:35:13.739Z,88.60
2023-04-22T23:38:00.648Z,89.00
2023-04-22T23:40:45.766Z,87.30
2023-04-22T23:43:31.228Z,88.80
2023-04-22T23:46:18.701Z,88.90
2023-04-22T23:49:04.150Z,88.60
2023-04-22T23:51:49.994Z,88.70
2023-04-22T23:54:35.349Z,88.50
2023-04-22T23:57:21.306Z,88.40
